Time;durP1;ratioP1;P1;durP2;ratioP2;P2;SDS_P1;SDS_P2;PMS_P1;PMS_P2;Temp;Humidity;BMP_temperature;BMP_pressure;BME280_temperature;BME280_humidity;BME280_pressure;Samples;Min_cycle;Max_cycle;Signal;HPM_P1;HPM_P2
2022/12/28 00:00:29;;;;;;;3.40;0.40;;;4.80;99.90;;;;;;5049746;28;20040;-86
2022/12/28 00:02:56;;;;;;;0.15;0.15;;;4.80;99.90;;;;;;5052972;28;20701;-85
2022/12/28 00:05:22;;;;;;;0.20;0.20;;;4.80;99.90;;;;;;5056571;28;20036;-85
2022/12/28 00:07:47;;;;;;;0.20;0.20;;;4.80;99.90;;;;;;5064584;28;20503;-84
2022/12/28 00:10:13;;;;;;;0.65;0.63;;;4.80;99.90;;;;;;5051404;28;20021;-85
2022/12/28 00:12:39;;;;;;;0.10;0.10;;;4.80;99.90;;;;;;5050188;28;20028;-83
2022/12/28 00:15:05;;;;;;;0.38;0.38;;;4.70;99.90;;;;;;5051364;28;20831;-85
2022/12/28 00:17:31;;;;;;;0.13;0.13;;;4.70;99.90;;;;;;5060236;28;20172;-83
2022/12/28 00:19:58;;;;;;;1.35;0.65;;;4.70;99.90;;;;;;5057442;28;20141;-82
2022/12/28 00:22:25;;;;;;;0.40;0.40;;;4.70;99.90;;;;;;5053585;28;20032;-82
2022/12/28 00:24:51;;;;;;;0.25;0.25;;;4.70;99.90;;;;;;5056298;28;20067;-84
2022/12/28 00:27:17;;;;;;;0.10;0.10;;;4.70;99.90;;;;;;5053553;28;20061;-84
2022/12/28 00:29:42;;;;;;;0.47;0.47;;;4.70;99.90;;;;;;5051807;28;20950;-83
2022/12/28 00:32:08;;;;;;;0.10;0.10;;;4.70;99.90;;;;;;5060380;28;20077;-83
2022/12/28 00:34:34;;;;;;;0.10;0.10;;;4.70;99.90;;;;;;5049032;28;20028;-83
2022/12/28 00:36:59;;;;;;;0.10;0.10;;;4.70;99.90;;;;;;5049175;28;20033;-83
2022/12/28 00:39:25;;;;;;;0.40;0.40;;;4.60;99.90;;;;;;5057690;28;20124;-82
2022/12/28 00:41:51;;;;;;;0.10;0.10;;;4.60;99.90;;;;;;5047734;28;20032;-83
2022/12/28 00:44:16;;;;;;;0.10;0.10;;;4.60;99.90;;;;;;5054242;28;20029;-83
2022/12/28 00:46:42;;;;;;;0.22;0.22;;;4.60;99.90;;;;;;5054886;28;20136;-82
2022/12/28 00:49:08;;;;;;;0.10;0.10;;;4.60;99.90;;;;;;5050870;28;20757;-82
2022/12/28 00:51:33;;;;;;;0.43;0.40;;;4.60;99.90;;;;;;5052774;28;20033;-82
2022/12/28 00:53:59;;;;;;;0.10;0.10;;;4.60;99.90;;;;;;5049274;28;20477;-82
2022/12/28 00:56:25;;;;;;;0.20;0.20;;;4.60;99.90;;;;;;5060840;28;20032;-82
2022/12/28 00:58:56;;;;;;;0.10;0.10;;;4.60;99.90;;;;;;5062456;28;20033;-83
2022/12/28 01:01:22;;;;;;;0.32;0.32;;;4.60;99.90;;;;;;5048193;28;20139;-82
2022/12/28 01:03:48;;;;;;;0.30;0.30;;;4.50;99.90;;;;;;5053223;28;20182;-82
2022/12/28 01:06:17;;;;;;;0.52;0.52;;;4.60;99.90;;;;;;5051179;28;20041;-81
2022/12/28 01:08:43;;;;;;;0.30;0.30;;;4.50;99.90;;;;;;5053133;28;20057;-81
2022/12/28 01:11:22;;;;;;;0.20;0.20;;;4.50;99.90;;;;;;5051097;28;20144;-82
2022/12/28 01:13:49;;;;;;;0.45;0.45;;;4.50;99.90;;;;;;5052352;28;20020;-81
2022/12/28 01:16:17;;;;;;;;;;;4.40;99.90;;;;;;5059889;28;20601;-80
2022/12/28 01:18:44;;;;;;;0.10;0.10;;;4.50;99.90;;;;;;5048451;28;19916;-80
2022/12/28 01:21:11;;;;;;;;;;;4.50;99.90;;;;;;5049264;28;20032;-80
2022/12/28 01:23:36;;;;;;;;;;;4.50;99.90;;;;;;5045236;28;19908;-83
2022/12/28 01:26:02;;;;;;;0.17;0.17;;;4.50;99.90;;;;;;5049380;28;20411;-82
2022/12/28 01:28:29;;;;;;;0.30;0.30;;;4.60;99.90;;;;;;5055066;28;20056;-82
2022/12/28 01:30:54;;;;;;;0.10;0.10;;;4.60;99.90;;;;;;5056926;28;20025;-82
2022/12/28 01:33:20;;;;;;;0.43;0.43;;;4.50;99.90;;;;;;5055504;28;20031;-82
2022/12/28 01:35:46;;;;;;;0.15;0.15;;;4.50;99.90;;;;;;5053102;28;20032;-82
2022/12/28 01:38:12;;;;;;;0.20;0.20;;;4.50;99.90;;;;;;5058866;28;20044;-83
2022/12/28 01:40:42;;;;;;;0.10;0.10;;;4.40;99.90;;;;;;5051517;28;20039;-82
2022/12/28 01:43:14;;;;;;;0.20;0.20;;;4.40;99.90;;;;;;5053785;28;20034;-82
2022/12/28 01:45:42;;;;;;;0.10;0.10;;;4.30;99.90;;;;;;5046832;28;20152;-82
2022/12/28 01:48:22;;;;;;;0.10;0.10;;;4.30;99.90;;;;;;5060667;28;20682;-82
2022/12/28 01:50:48;;;;;;;0.30;0.30;;;4.30;99.90;;;;;;5052226;28;20467;-82
2022/12/28 01:53:16;;;;;;;0.10;0.10;;;4.30;99.90;;;;;;5058493;28;20063;-82
2022/12/28 01:55:43;;;;;;;0.10;0.10;;;4.40;99.90;;;;;;5051776;28;20106;-82
2022/12/28 01:58:19;;;;;;;0.40;0.40;;;4.30;99.90;;;;;;5053947;28;20029;-82
2022/12/28 02:00:45;;;;;;;1.55;0.68;;;4.40;99.90;;;;;;5050816;28;20275;-82
2022/12/28 02:03:17;;;;;;;0.10;0.10;;;4.20;99.90;;;;;;5055751;28;20088;-82
2022/12/28 02:05:47;;;;;;;0.10;0.10;;;4.30;99.90;;;;;;5051076;28;20506;-82
2022/12/28 02:08:43;;;;;;;0.40;0.40;;;4.30;99.90;;;;;;5066194;28;20493;-82
2022/12/28 02:11:11;;;;;;;;;;;4.30;99.90;;;;;;5032502;28;20033;-83
2022/12/28 02:13:37;;;;;;;0.30;0.30;;;4.20;99.90;;;;;;5062333;28;19908;-81
2022/12/28 02:16:04;;;;;;;0.20;0.20;;;4.20;99.90;;;;;;5063250;28;20099;-79
2022/12/28 02:18:31;;;;;;;0.20;0.20;;;4.20;99.90;;;;;;5052306;28;20033;-80
2022/12/28 02:21:09;;;;;;;0.10;0.10;;;4.20;99.90;;;;;;5052530;28;20020;-80
2022/12/28 02:24:13;;;;;;;0.85;0.80;;;4.20;99.90;;;;;;5051618;28;20039;-80
2022/12/28 02:26:51;;;;;;;0.10;0.10;;;4.30;99.90;;;;;;4979901;28;20522;-80
2022/12/28 02:29:26;;;;;;;0.10;0.10;;;4.30;99.90;;;;;;5055694;28;20475;-80
2022/12/28 02:32:22;;;;;;;0.10;0.10;;;4.30;99.90;;;;;;5060831;28;20068;-81
2022/12/28 02:34:53;;;;;;;0.10;0.10;;;4.10;99.90;;;;;;5053375;28;20758;-83
2022/12/28 02:37:25;;;;;;;0.10;0.10;;;4.20;99.90;;;;;;5065669;28;20106;-83
2022/12/28 02:39:57;;;;;;;0.40;0.40;;;4.20;99.90;;;;;;5054498;28;20033;-83
2022/12/28 02:42:25;;;;;;;0.10;0.10;;;4.30;99.90;;;;;;5064029;28;20400;-84
2022/12/28 02:50:41;;;;;;;0.10;0.10;;;4.30;99.90;;;;;;5060853;28;20039;-83
2022/12/28 02:53:10;;;;;;;0.93;0.93;;;4.40;99.90;;;;;;5058026;28;20021;-83
2022/12/28 02:56:06;;;;;;;0.15;0.15;;;4.40;99.90;;;;;;5061881;28;20032;-83
2022/12/28 02:58:53;;;;;;;0.10;0.10;;;4.40;99.90;;;;;;5067742;28;20024;-82
2022/12/28 03:01:29;;;;;;;0.10;0.10;;;4.40;99.90;;;;;;5057682;28;20128;-82
2022/12/28 03:04:07;;;;;;;0.93;0.93;;;4.30;99.90;;;;;;5050643;28;20031;-83
2022/12/28 03:09:40;;;;;;;0.20;0.20;;;4.40;99.90;;;;;;5059030;28;20047;-82
2022/12/28 03:12:13;;;;;;;0.10;0.10;;;4.30;99.90;;;;;;5049760;28;20032;-79
2022/12/28 03:14:44;;;;;;;0.63;0.50;;;4.30;99.90;;;;;;5056174;28;20024;-80
2022/12/28 03:31:18;;;;;;;0.30;0.30;;;4.00;99.90;;;;;;5060833;28;20078;-83
2022/12/28 03:33:50;;;;;;;0.10;0.10;;;4.00;99.90;;;;;;5059341;28;20054;-81
2022/12/28 03:36:27;;;;;;;0.10;0.10;;;3.90;99.90;;;;;;5054548;28;20025;-81
2022/12/28 03:39:04;;;;;;;;;;;3.80;99.90;;;;;;5056499;28;20047;-81
2022/12/28 03:41:49;;;;;;;0.90;0.85;;;3.90;99.90;;;;;;5059981;28;19915;-81
2022/12/28 03:44:27;;;;;;;0.20;0.20;;;3.90;99.90;;;;;;5052652;28;20033;-80
2022/12/28 03:47:07;;;;;;;0.10;0.10;;;3.90;99.90;;;;;;5062579;28;20055;-80
2022/12/28 03:49:33;;;;;;;2.53;1.10;;;3.80;99.90;;;;;;5052620;28;20948;-80
2022/12/28 03:52:01;;;;;;;0.43;0.43;;;3.90;99.90;;;;;;5065313;28;20080;-80
2022/12/28 03:54:26;;;;;;;0.10;0.10;;;3.90;99.90;;;;;;5055658;28;20029;-80
2022/12/28 03:56:52;;;;;;;0.20;0.20;;;4.00;99.90;;;;;;5058085;28;20419;-80
2022/12/28 03:59:18;;;;;;;0.10;0.10;;;3.90;99.90;;;;;;5053264;28;20850;-81
2022/12/28 04:01:44;;;;;;;0.30;0.30;;;4.10;99.90;;;;;;5060576;28;20044;-80
2022/12/28 04:04:10;;;;;;;0.15;0.15;;;3.90;99.90;;;;;;5054183;28;20029;-80
2022/12/28 04:06:36;;;;;;;1.63;0.57;;;4.00;99.90;;;;;;5059425;28;20052;-80
2022/12/28 04:09:02;;;;;;;0.20;0.20;;;4.00;99.90;;;;;;5059665;28;20041;-82
2022/12/28 04:11:28;;;;;;;0.10;0.10;;;3.90;99.90;;;;;;5061866;28;20024;-81
2022/12/28 04:13:54;;;;;;;0.35;0.35;;;4.00;99.90;;;;;;5057558;28;20066;-80
2022/12/28 04:16:20;;;;;;;0.10;0.10;;;3.90;99.90;;;;;;5060232;28;20605;-80
2022/12/28 04:18:46;;;;;;;0.30;0.30;;;3.90;99.90;;;;;;5046348;28;20063;-80
2022/12/28 04:21:13;;;;;;;0.10;0.10;;;3.80;99.90;;;;;;5061662;28;20029;-80
2022/12/28 04:23:38;;;;;;;0.10;0.10;;;3.80;99.90;;;;;;5055364;28;20290;-82
2022/12/28 04:26:06;;;;;;;0.47;0.47;;;3.70;99.90;;;;;;5063047;28;20474;-81
2022/12/28 04:28:33;;;;;;;0.10;0.10;;;3.80;99.90;;;;;;5055345;28;20519;-80
2022/12/28 04:31:00;;;;;;;0.65;0.65;;;3.80;99.90;;;;;;5063873;28;20071;-80
2022/12/28 04:33:26;;;;;;;;;;;3.90;99.90;;;;;;5058400;28;20032;-82
2022/12/28 04:35:52;;;;;;;0.10;0.10;;;3.90;99.90;;;;;;5050241;28;20458;-82
2022/12/28 04:38:18;;;;;;;0.32;0.32;;;3.90;99.90;;;;;;5046587;28;20029;-81
2022/12/28 04:40:43;;;;;;;0.10;0.10;;;3.90;99.90;;;;;;5046668;28;20491;-84
2022/12/28 04:43:09;;;;;;;0.10;0.10;;;3.90;99.90;;;;;;5048509;28;20033;-80
2022/12/28 04:45:35;;;;;;;0.13;0.13;;;4.00;99.90;;;;;;5047779;28;20029;-80
2022/12/28 04:48:01;;;;;;;0.30;0.30;;;4.00;99.90;;;;;;5047847;28;20025;-81
2022/12/28 04:50:28;;;;;;;0.45;0.45;;;4.10;99.90;;;;;;5047859;28;20029;-81
2022/12/28 04:52:53;;;;;;;0.20;0.20;;;4.00;99.90;;;;;;5051758;28;20042;-80
2022/12/28 04:55:19;;;;;;;0.77;0.77;;;4.10;99.90;;;;;;5052565;28;20552;-80
2022/12/28 04:57:46;;;;;;;0.47;0.47;;;4.10;99.90;;;;;;5048343;28;20046;-80
2022/12/28 05:00:13;;;;;;;0.40;0.40;;;4.10;99.90;;;;;;5047358;28;20033;-80
2022/12/28 05:02:39;;;;;;;;;;;4.20;99.90;;;;;;5057646;28;20039;-82
2022/12/28 05:05:05;;;;;;;1.02;0.40;;;4.10;99.90;;;;;;5047300;28;20015;-82
2022/12/28 05:07:31;;;;;;;0.32;0.32;;;4.20;99.90;;;;;;5058817;28;20063;-81
2022/12/28 05:09:57;;;;;;;0.57;0.57;;;4.20;99.90;;;;;;5049446;28;20032;-81
2022/12/28 05:12:22;;;;;;;0.20;0.20;;;4.20;99.90;;;;;;5050209;28;20036;-82
2022/12/28 05:14:48;;;;;;;0.10;0.10;;;4.20;99.90;;;;;;5054109;28;20154;-80
2022/12/28 05:17:14;;;;;;;0.35;0.35;;;4.10;99.90;;;;;;5055600;28;20079;-81
2022/12/28 05:19:40;;;;;;;0.40;0.40;;;4.10;99.90;;;;;;5050955;28;20039;-81
2022/12/28 05:22:10;;;;;;;0.22;0.22;;;4.10;99.90;;;;;;5055846;28;20037;-81
2022/12/28 05:24:39;;;;;;;0.20;0.20;;;4.10;99.90;;;;;;5052506;28;20039;-80
2022/12/28 05:27:05;;;;;;;0.10;0.10;;;4.10;99.90;;;;;;5068925;28;20635;-80
2022/12/28 05:29:31;;;;;;;0.10;0.10;;;4.20;99.90;;;;;;5055468;28;21007;-80
2022/12/28 05:31:56;;;;;;;0.20;0.20;;;4.30;99.90;;;;;;5058128;28;20056;-79
2022/12/28 05:34:22;;;;;;;0.20;0.20;;;4.40;99.90;;;;;;5052657;28;20106;-82
2022/12/28 05:36:48;;;;;;;0.52;0.52;;;4.40;99.90;;;;;;5062788;28;20033;-81
2022/12/28 05:39:13;;;;;;;0.20;0.20;;;4.40;99.90;;;;;;5061746;28;20033;-81
2022/12/28 05:41:39;;;;;;;0.22;0.22;;;4.40;99.90;;;;;;5060583;28;20032;-82
2022/12/28 05:44:05;;;;;;;0.22;0.22;;;4.40;99.90;;;;;;5064247;28;20544;-84
2022/12/28 05:46:33;;;;;;;0.20;0.20;;;4.40;99.90;;;;;;5056381;28;21141;-83
2022/12/28 05:49:00;;;;;;;1.00;0.45;;;4.40;99.90;;;;;;5060804;28;20028;-83
2022/12/28 05:51:28;;;;;;;0.10;0.10;;;4.40;99.90;;;;;;5057749;28;20052;-83
2022/12/28 05:53:55;;;;;;;0.65;0.63;;;4.50;99.90;;;;;;5061609;28;20029;-82
2022/12/28 05:56:23;;;;;;;0.32;0.32;;;4.60;99.90;;;;;;5060795;28;20035;-84
2022/12/28 05:59:00;;;;;;;1.30;1.20;;;4.60;99.90;;;;;;5056939;28;20118;-84
2022/12/28 06:01:29;;;;;;;0.32;0.32;;;4.60;99.90;;;;;;5058614;28;20024;-84
2022/12/28 06:04:04;;;;;;;0.13;0.13;;;4.70;99.90;;;;;;5061794;28;20123;-85
2022/12/28 06:06:31;;;;;;;1.08;0.50;;;4.80;99.90;;;;;;5064146;28;20029;-81
2022/12/28 06:08:57;;;;;;;0.30;0.30;;;4.90;99.90;;;;;;5058118;28;20028;-82
2022/12/28 06:11:24;;;;;;;0.10;0.10;;;5.10;99.90;;;;;;5054590;28;20032;-82
2022/12/28 06:13:50;;;;;;;0.43;0.43;;;5.20;99.90;;;;;;5057843;28;20497;-83
2022/12/28 06:16:17;;;;;;;0.50;0.50;;;5.10;99.90;;;;;;5064618;28;20021;-82
2022/12/28 06:18:44;;;;;;;0.25;0.25;;;5.00;99.90;;;;;;5049938;28;20657;-82
2022/12/28 06:21:13;;;;;;;0.47;0.30;;;4.90;99.90;;;;;;5051666;28;20040;-84
2022/12/28 06:23:38;;;;;;;0.17;0.17;;;4.90;99.90;;;;;;5050512;28;20021;-82
2022/12/28 06:26:06;;;;;;;0.20;0.20;;;4.90;99.90;;;;;;5059008;28;20043;-82
2022/12/28 06:28:35;;;;;;;0.60;0.60;;;4.90;99.90;;;;;;5050719;28;20025;-82
2022/12/28 06:31:07;;;;;;;0.30;0.30;;;4.90;99.90;;;;;;5055881;28;20054;-80
2022/12/28 06:33:33;;;;;;;0.20;0.20;;;4.80;99.90;;;;;;5050799;28;20025;-80
2022/12/28 06:35:59;;;;;;;0.57;0.57;;;5.00;99.90;;;;;;5048540;28;20561;-79
2022/12/28 06:38:26;;;;;;;0.20;0.20;;;5.00;99.90;;;;;;5052851;28;20540;-79
2022/12/28 06:40:52;;;;;;;0.10;0.10;;;5.00;99.90;;;;;;5049662;28;20055;-80
2022/12/28 06:43:18;;;;;;;0.20;0.20;;;4.90;99.90;;;;;;5059716;28;20032;-80
2022/12/28 06:45:54;;;;;;;0.20;0.20;;;4.80;99.90;;;;;;5049764;28;20047;-79
2022/12/28 06:48:20;;;;;;;0.10;0.10;;;4.80;99.90;;;;;;5051390;28;20582;-80
2022/12/28 06:50:57;;;;;;;11.07;2.65;;;4.90;99.90;;;;;;5047796;28;20078;-81
2022/12/28 06:53:24;;;;;;;0.47;0.47;;;5.00;99.90;;;;;;5050289;28;20039;-79
2022/12/28 06:55:57;;;;;;;0.73;0.73;;;5.10;99.90;;;;;;5051641;28;20059;-81
2022/12/28 06:58:27;;;;;;;0.10;0.10;;;5.10;99.90;;;;;;5055456;28;20028;-79
2022/12/28 07:00:53;;;;;;;0.10;0.10;;;5.30;99.90;;;;;;5051378;28;20056;-80
2022/12/28 07:03:20;;;;;;;0.20;0.20;;;5.40;99.90;;;;;;5049744;28;20076;-84
2022/12/28 07:05:46;;;;;;;0.10;0.10;;;5.50;99.90;;;;;;5056618;28;20036;-83
2022/12/28 07:08:11;;;;;;;0.10;0.10;;;5.50;99.90;;;;;;5058590;28;20064;-80
2022/12/28 07:10:37;;;;;;;0.10;0.10;;;5.20;99.90;;;;;;5050724;28;20076;-78
2022/12/28 07:13:04;;;;;;;0.20;0.20;;;5.20;99.90;;;;;;5055786;28;20782;-77
2022/12/28 07:15:30;;;;;;;0.10;0.10;;;5.30;99.90;;;;;;5066660;28;20094;-78
2022/12/28 07:17:57;;;;;;;0.10;0.10;;;5.20;99.90;;;;;;5055450;28;20033;-77
2022/12/28 07:20:23;;;;;;;0.10;0.10;;;5.00;99.90;;;;;;5058004;28;20035;-77
2022/12/28 07:22:49;;;;;;;0.10;0.10;;;5.00;99.90;;;;;;5058939;28;20921;-77
2022/12/28 07:25:15;;;;;;;0.10;0.10;;;4.90;99.90;;;;;;5057678;28;20147;-79
2022/12/28 07:27:41;;;;;;;0.50;0.50;;;4.80;99.90;;;;;;5057376;28;20035;-79
2022/12/28 07:30:07;;;;;;;0.20;0.20;;;4.90;99.90;;;;;;5050661;28;20090;-86
2022/12/28 07:32:36;;;;;;;0.20;0.20;;;5.00;99.90;;;;;;5049548;28;20060;-80
2022/12/28 07:35:03;;;;;;;0.10;0.10;;;5.10;99.90;;;;;;5053087;28;20093;-80
2022/12/28 07:37:28;;;;;;;0.10;0.10;;;5.10;99.90;;;;;;5049435;28;20797;-79
2022/12/28 07:39:54;;;;;;;0.22;0.22;;;5.20;99.90;;;;;;5050670;28;20042;-79
2022/12/28 07:42:20;;;;;;;0.17;0.17;;;5.30;99.90;;;;;;5060773;28;20061;-77
2022/12/28 07:44:46;;;;;;;0.10;0.10;;;5.40;99.90;;;;;;5050892;28;20025;-77
2022/12/28 07:47:12;;;;;;;0.30;0.30;;;5.60;99.90;;;;;;5065549;28;20782;-77
2022/12/28 07:49:38;;;;;;;0.20;0.20;;;5.80;99.90;;;;;;5053343;28;20036;-77
2022/12/28 07:52:04;;;;;;;0.10;0.10;;;5.90;99.90;;;;;;5056415;28;20035;-77
2022/12/28 07:54:30;;;;;;;0.20;0.20;;;5.90;99.90;;;;;;5058929;28;20039;-78
2022/12/28 07:56:56;;;;;;;0.15;0.15;;;5.80;99.90;;;;;;5061166;28;20035;-78
2022/12/28 07:59:21;;;;;;;0.20;0.20;;;6.00;99.90;;;;;;5063150;28;20056;-79
2022/12/28 08:01:49;;;;;;;0.60;0.60;;;6.10;99.90;;;;;;5054225;28;20032;-77
2022/12/28 08:04:16;;;;;;;0.20;0.20;;;6.40;99.90;;;;;;5056728;28;20044;-80
2022/12/28 08:06:44;;;;;;;0.20;0.20;;;6.40;99.90;;;;;;5058217;28;20097;-80
2022/12/28 08:09:14;;;;;;;0.75;0.65;;;6.30;99.90;;;;;;5051996;28;20036;-79
2022/12/28 08:11:42;;;;;;;0.35;0.35;;;6.20;99.90;;;;;;5056810;28;20028;-80
2022/12/28 08:14:09;;;;;;;0.20;0.20;;;6.10;99.90;;;;;;5061393;28;20673;-79
2022/12/28 08:16:38;;;;;;;0.73;0.73;;;6.10;99.90;;;;;;5066217;28;20028;-79
2022/12/28 08:19:05;;;;;;;0.47;0.47;;;6.00;99.90;;;;;;5062788;28;20036;-77
2022/12/28 08:21:35;;;;;;;0.15;0.15;;;6.00;99.90;;;;;;5061357;28;20032;-78
2022/12/28 08:24:01;;;;;;;0.45;0.45;;;6.00;99.90;;;;;;5059810;28;20033;-78
2022/12/28 08:26:34;;;;;;;0.30;0.30;;;6.10;99.90;;;;;;5059896;28;20503;-78
2022/12/28 08:29:03;;;;;;;1.75;1.17;;;6.10;99.90;;;;;;5065516;28;20032;-77
2022/12/28 08:31:31;;;;;;;0.20;0.20;;;6.20;99.90;;;;;;5057863;28;20105;-78
2022/12/28 08:33:59;;;;;;;0.10;0.10;;;6.30;99.90;;;;;;5060801;28;20024;-78
2022/12/28 08:36:25;;;;;;;0.52;0.52;;;6.40;99.90;;;;;;5052488;28;20457;-77
2022/12/28 08:38:51;;;;;;;0.20;0.20;;;6.40;99.90;;;;;;5056096;28;20499;-78
2022/12/28 08:41:20;;;;;;;0.20;0.20;;;6.40;99.90;;;;;;5062070;28;20429;-78
2022/12/28 08:43:47;;;;;;;0.10;0.10;;;6.40;99.90;;;;;;5050715;28;20032;-77
2022/12/28 08:46:21;;;;;;;0.20;0.20;;;6.30;99.90;;;;;;5058419;28;20036;-77
2022/12/28 08:48:48;;;;;;;0.13;0.13;;;6.30;99.90;;;;;;5056686;28;20024;-77
2022/12/28 08:51:19;;;;;;;0.10;0.10;;;6.30;99.90;;;;;;5063817;28;20622;-78
2022/12/28 08:53:46;;;;;;;0.10;0.10;;;6.30;99.90;;;;;;5053263;28;20037;-80
2022/12/28 08:56:15;;;;;;;0.22;0.22;;;6.30;99.90;;;;;;5055890;28;20803;-78
2022/12/28 08:58:42;;;;;;;0.17;0.17;;;6.40;99.90;;;;;;5054899;28;20032;-78
2022/12/28 09:01:15;;;;;;;0.40;0.40;;;6.40;99.90;;;;;;5059668;28;20136;-79
2022/12/28 09:03:44;;;;;;;0.10;0.10;;;6.70;99.90;;;;;;5058532;28;20092;-78
2022/12/28 09:06:12;;;;;;;0.20;0.20;;;6.80;99.90;;;;;;5075055;28;20060;-77
2022/12/28 09:08:39;;;;;;;0.30;0.30;;;7.20;99.90;;;;;;5051253;28;20056;-77
2022/12/28 09:11:08;;;;;;;1.55;0.52;;;7.40;99.90;;;;;;5050108;28;20035;-78
2022/12/28 09:13:34;;;;;;;0.10;0.10;;;7.60;99.90;;;;;;5048801;28;20033;-75
2022/12/28 09:16:03;;;;;;;1.30;0.52;;;8.10;99.90;;;;;;5048623;28;20042;-76
2022/12/28 09:18:29;;;;;;;0.20;0.20;;;8.70;99.90;;;;;;5047427;28;20044;-76
2022/12/28 09:20:55;;;;;;;1.17;0.68;;;9.30;99.90;;;;;;5047564;28;20033;-75
2022/12/28 09:23:21;;;;;;;0.25;0.25;;;9.50;99.90;;;;;;5050659;28;20536;-75
2022/12/28 09:25:47;;;;;;;0.43;0.37;;;9.70;99.90;;;;;;5047852;28;20107;-75
2022/12/28 09:28:13;;;;;;;0.22;0.22;;;9.30;99.90;;;;;;5048193;28;20346;-75
2022/12/28 09:30:39;;;;;;;0.10;0.10;;;9.30;99.90;;;;;;5049318;28;20024;-75
2022/12/28 09:36:05;;;;;;;0.10;0.10;;;9.30;99.90;;;;;;5031378;28;20082;-75
2022/12/28 09:38:31;;;;;;;0.10;0.10;;;9.50;99.90;;;;;;5056747;28;20024;-75
2022/12/28 09:40:57;;;;;;;0.43;0.43;;;9.60;99.90;;;;;;5047514;28;20021;-75
2022/12/28 09:43:25;;;;;;;0.20;0.20;;;9.40;99.90;;;;;;5047051;28;20051;-75
2022/12/28 09:45:53;;;;;;;0.35;0.35;;;9.40;99.90;;;;;;5050675;28;20029;-75
2022/12/28 09:48:25;;;;;;;0.10;0.10;;;9.30;99.90;;;;;;5048645;28;20066;-75
2022/12/28 09:50:51;;;;;;;0.10;0.10;;;9.60;99.90;;;;;;5048048;28;20021;-75
2022/12/28 09:53:29;;;;;;;0.40;0.40;;;9.90;99.90;;;;;;5048514;28;20038;-74
2022/12/28 09:56:23;;;;;;;0.10;0.10;;;10.00;99.90;;;;;;5047276;28;20081;-75
2022/12/28 09:58:50;;;;;;;0.13;0.13;;;10.20;99.90;;;;;;5047202;28;20025;-74
2022/12/28 10:01:18;;;;;;;0.15;0.15;;;10.20;99.90;;;;;;5048517;28;20054;-74
2022/12/28 10:03:45;;;;;;;0.20;0.20;;;10.30;99.90;;;;;;5048686;28;20072;-75
2022/12/28 10:06:16;;;;;;;0.10;0.10;;;10.40;99.90;;;;;;5051138;28;20033;-75
2022/12/28 10:08:49;;;;;;;1.17;1.08;;;10.40;99.90;;;;;;5050909;28;20040;-75
2022/12/28 10:11:24;;;;;;;0.63;0.63;;;10.50;99.90;;;;;;5052961;28;20104;-75
2022/12/28 10:14:02;;;;;;;0.13;0.13;;;10.60;99.90;;;;;;5052563;28;20029;-75
2022/12/28 10:16:35;;;;;;;0.20;0.20;;;10.50;99.90;;;;;;5053968;28;20040;-75
2022/12/28 10:19:01;;;;;;;0.10;0.10;;;10.50;99.90;;;;;;5051056;28;20066;-76
2022/12/28 10:21:31;;;;;;;0.30;0.30;;;10.70;99.90;;;;;;5050922;28;20116;-75
2022/12/28 10:23:57;;;;;;;1.02;0.85;;;10.80;99.90;;;;;;5049393;28;20309;-75
2022/12/28 10:26:23;;;;;;;0.00;0.00;;;10.80;99.90;;;;;;5066406;28;20094;-76
2022/12/28 10:28:55;;;;;;;3.67;1.77;;;10.90;99.90;;;;;;5052291;28;20029;-76
2022/12/28 10:31:36;;;;;;;0.20;0.20;;;10.90;99.90;;;;;;5050922;28;20046;-76
2022/12/28 10:34:14;;;;;;;0.40;0.35;;;11.00;99.90;;;;;;5050264;28;20079;-74
2022/12/28 10:36:40;;;;;;;0.30;0.30;;;11.00;99.90;;;;;;5052582;28;20056;-75
2022/12/28 10:39:20;;;;;;;2.35;0.95;;;11.30;99.90;;;;;;5052157;28;20134;-76
2022/12/28 10:41:47;;;;;;;0.10;0.10;;;11.80;99.90;;;;;;5051812;28;20025;-75
2022/12/28 10:44:30;;;;;;;0.25;0.25;;;12.10;99.90;;;;;;5053748;28;20106;-75
2022/12/28 10:47:02;;;;;;;0.13;0.13;;;12.00;99.90;;;;;;5051792;28;20221;-75
2022/12/28 10:49:34;;;;;;;0.10;0.10;;;12.00;99.90;;;;;;5050399;28;20025;-75
2022/12/28 10:52:17;;;;;;;0.40;0.40;;;12.00;99.90;;;;;;5051281;28;20559;-75
2022/12/28 10:54:42;;;;;;;0.10;0.10;;;11.90;99.90;;;;;;5049859;28;20027;-74
2022/12/28 10:57:29;;;;;;;0.88;0.88;;;11.90;99.90;;;;;;5052221;28;20020;-75
2022/12/28 11:00:13;;;;;;;;;;;12.10;99.90;;;;;;5051044;28;20485;-75
2022/12/28 11:02:38;;;;;;;0.47;0.47;;;12.10;99.90;;;;;;5050620;28;20011;-75
2022/12/28 11:05:05;;;;;;;0.37;0.37;;;12.00;99.90;;;;;;5050993;28;20119;-79
2022/12/28 11:07:38;;;;;;;0.30;0.20;;;11.80;99.90;;;;;;5050083;28;20059;-75
2022/12/28 11:10:24;;;;;;;1.27;1.17;;;12.30;99.90;;;;;;5050917;28;20279;-77
2022/12/28 11:12:57;;;;;;;0.20;0.20;;;12.30;99.90;;;;;;5051103;28;20028;-77
2022/12/28 11:15:29;;;;;;;0.20;0.20;;;12.10;99.90;;;;;;5049683;28;20102;-76
2022/12/28 11:18:16;;;;;;;0.63;0.63;;;12.10;99.90;;;;;;5050942;28;20064;-77
2022/12/28 11:20:51;;;;;;;0.35;0.35;;;11.90;99.90;;;;;;5052803;28;20020;-77
2022/12/28 11:23:22;;;;;;;1.50;1.40;;;11.60;99.90;;;;;;5048614;28;20139;-77
2022/12/28 11:25:49;;;;;;;0.10;0.10;;;11.80;99.90;;;;;;5051298;28;20035;-76
2022/12/28 11:28:19;;;;;;;2.05;1.40;;;12.10;99.90;;;;;;5052080;28;20906;-77
2022/12/28 11:30:47;;;;;;;0.10;0.10;;;11.90;99.90;;;;;;5050797;28;20614;-77
2022/12/28 11:33:34;;;;;;;0.32;0.32;;;11.80;99.90;;;;;;5051719;28;20047;-77
2022/12/28 11:36:01;;;;;;;0.47;0.47;;;11.60;99.90;;;;;;5049107;28;20047;-77
2022/12/28 11:38:44;;;;;;;0.55;0.55;;;11.60;99.90;;;;;;5050674;28;20025;-77
2022/12/28 11:41:23;;;;;;;0.20;0.20;;;12.00;99.90;;;;;;5050201;28;20035;-77
2022/12/28 11:43:56;;;;;;;0.60;0.60;;;12.20;99.90;;;;;;5049167;28;20025;-76
2022/12/28 11:46:22;;;;;;;1.42;1.00;;;12.40;99.90;;;;;;5050804;28;20044;-77
2022/12/28 11:48:48;;;;;;;3.50;0.93;;;12.10;99.90;;;;;;5051151;28;20033;-78
2022/12/28 11:51:19;;;;;;;0.32;0.32;;;12.10;99.90;;;;;;5054768;28;20037;-78
2022/12/28 11:53:45;;;;;;;0.47;0.22;;;12.30;99.90;;;;;;5057709;28;20028;-78
2022/12/28 11:56:18;;;;;;;0.68;0.47;;;12.50;99.90;;;;;;5052580;28;20039;-77
2022/12/28 11:58:59;;;;;;;1.75;1.60;;;12.60;99.90;;;;;;5055534;28;20020;-78
2022/12/28 12:01:32;;;;;;;1.13;1.08;;;12.90;99.90;;;;;;5051133;28;20112;-77
2022/12/28 12:03:58;;;;;;;2.55;1.85;;;12.90;99.90;;;;;;5061811;28;20032;-77
2022/12/28 12:07:02;;;;;;;1.67;1.40;;;12.70;99.90;;;;;;5062128;28;20032;-77
2022/12/28 12:09:42;;;;;;;0.90;0.90;;;12.80;99.90;;;;;;5016847;28;20041;-77
2022/12/28 12:12:14;;;;;;;1.98;1.55;;;12.90;99.90;;;;;;5046404;28;20500;-76
2022/12/28 12:15:10;;;;;;;0.50;0.50;;;12.90;99.90;;;;;;5051743;28;20860;-77
2022/12/28 12:18:04;;;;;;;5.28;1.00;;;13.00;99.90;;;;;;5045148;28;20075;-77
2022/12/28 12:20:43;;;;;;;0.28;0.28;;;13.00;99.90;;;;;;5049166;28;20072;-76
2022/12/28 12:23:18;;;;;;;1.40;0.80;;;12.90;99.90;;;;;;5056013;28;20033;-76
2022/12/28 12:25:47;;;;;;;0.27;0.27;;;12.90;99.90;;;;;;5048855;28;20087;-77
2022/12/28 12:28:39;;;;;;;0.63;0.63;;;12.90;99.90;;;;;;5053747;28;20033;-76
2022/12/28 12:31:10;;;;;;;0.95;0.95;;;13.10;99.90;;;;;;5050414;28;20063;-77
2022/12/28 12:33:40;;;;;;;0.10;0.10;;;13.10;99.90;;;;;;5056271;28;20774;-77
2022/12/28 12:36:23;;;;;;;1.42;0.50;;;13.10;99.90;;;;;;5047434;28;20033;-77
2022/12/28 12:39:22;;;;;;;0.57;0.57;;;13.20;99.90;;;;;;5054858;28;20037;-77
2022/12/28 12:41:56;;;;;;;0.22;0.22;;;13.10;99.90;;;;;;5047361;28;20052;-77
2022/12/28 12:44:33;;;;;;;1.83;0.90;;;13.00;99.90;;;;;;5051530;28;20031;-77
2022/12/28 12:47:17;;;;;;;0.85;0.70;;;13.20;99.90;;;;;;5048994;28;20063;-76
2022/12/28 12:50:05;;;;;;;1.35;1.00;;;13.10;99.90;;;;;;5048343;28;20025;-77
2022/12/28 12:53:00;;;;;;;1.90;1.65;;;13.20;99.90;;;;;;5048724;28;20074;-77
2022/12/28 12:55:41;;;;;;;0.57;0.47;;;13.30;99.90;;;;;;5049319;28;20625;-76
2022/12/28 12:58:18;;;;;;;4.70;1.92;;;13.50;99.90;;;;;;5049437;28;20039;-76
2022/12/28 13:01:20;;;;;;;3.80;2.83;;;13.30;99.90;;;;;;5050064;28;20622;-77
2022/12/28 13:03:52;;;;;;;5.13;2.45;;;13.40;99.90;;;;;;5049515;28;20729;-76
2022/12/28 13:06:22;;;;;;;0.70;0.68;;;13.50;99.90;;;;;;5049900;28;20021;-77
2022/12/28 13:08:53;;;;;;;0.20;0.20;;;13.40;99.90;;;;;;5051058;28;20051;-77
2022/12/28 13:11:20;;;;;;;0.10;0.10;;;13.40;99.90;;;;;;5049395;28;20078;-76
2022/12/28 13:13:49;;;;;;;;;;;13.50;99.90;;;;;;5049124;28;20758;-76
2022/12/28 13:16:21;;;;;;;0.52;0.52;;;13.60;99.90;;;;;;5049101;28;19982;-77
2022/12/28 13:18:57;;;;;;;0.38;0.38;;;13.40;99.90;;;;;;5050144;28;20547;-76
2022/12/28 13:21:26;;;;;;;1.83;0.57;;;13.30;99.90;;;;;;5049153;28;20035;-77
2022/12/28 13:23:52;;;;;;;0.32;0.32;;;13.40;99.90;;;;;;5049971;28;20032;-76
2022/12/28 13:26:26;;;;;;;1.10;0.65;;;13.50;99.90;;;;;;5050034;28;20064;-77
2022/12/28 13:29:00;;;;;;;0.57;0.57;;;13.60;99.90;;;;;;5051300;28;20025;-77
2022/12/28 13:31:34;;;;;;;17.48;6.47;;;13.50;99.90;;;;;;5049992;28;20036;-77
2022/12/28 13:34:03;;;;;;;1.05;1.00;;;13.40;99.90;;;;;;5051278;28;20027;-76
2022/12/28 13:36:30;;;;;;;3.53;2.78;;;13.40;99.90;;;;;;5052750;28;20473;-77